Time;durP1;ratioP1;P1;durP2;ratioP2;P2;SDS_P1;SDS_P2;PMS_P1;PMS_P2;Temp;Humidity;BMP_temperature;BMP_pressure;BME280_temperature;BME280_humidity;BME280_pressure;Samples;Min_cycle;Max_cycle;Signal;HPM_P1;HPM_P2
2021/07/18 00:02:03;;;;;;;;;;;;;;;;;;5068308;28;19938;-61
2021/07/18 00:04:29;;;;;;;;;;;;;;;;;;5068302;28;19916;-61
2021/07/18 00:06:55;;;;;;;;;;;;;;;;;;5071226;28;19952;-61
2021/07/18 00:09:21;;;;;;;;;;;;;;;;;;5070147;28;19912;-61
2021/07/18 00:11:47;;;;;;;;;;;;;;;;;;5067998;28;19919;-61
2021/07/18 00:14:13;;;;;;;;;;;;;;;;;;5068597;28;19974;-61
2021/07/18 00:16:39;;;;;;;;;;;;;;;;;;5068130;28;19995;-61
2021/07/18 00:19:05;;;;;;;;;;;;;;;;;;5069708;28;19967;-61
2021/07/18 00:21:30;;;;;;;;;;;;;;;;;;5071376;28;19948;-61
2021/07/18 00:23:57;;;;;;;;;;;;;;;;;;5067844;28;19920;-61
2021/07/18 00:26:23;;;;;;;;;;;;;;;;;;5068378;28;20394;-61
2021/07/18 00:28:49;;;;;;;;;;;;;;;;;;5068399;28;19912;-61
2021/07/18 00:31:14;;;;;;;;;;;;;;;;;;5068164;28;19917;-61
2021/07/18 00:33:40;;;;;;;;;;;;;;;;;;5072018;28;19916;-61
2021/07/18 00:36:06;;;;;;;;;;;;;;;;;;5067721;28;19970;-61
2021/07/18 00:38:32;;;;;;;;;;;;;;;;;;5068232;28;19913;-61
2021/07/18 00:40:58;;;;;;;;;;;;;;;;;;5068305;28;19920;-61
2021/07/18 00:43:24;;;;;;;;;;;;;;;;;;5068113;28;19913;-61
2021/07/18 00:45:50;;;;;;;;;;;;;;;;;;5073522;28;19919;-61
2021/07/18 00:48:16;;;;;;;;;;;;;;;;;;5072779;28;19913;-61
2021/07/18 00:50:44;;;;;;;;;;;;;;;;;;5072162;28;20007;-61
2021/07/18 00:53:11;;;;;;;;;;;;;;;;;;5071945;28;19912;-62
2021/07/18 00:55:42;;;;;;;;;;;;;;;;;;5071424;28;19951;-61
2021/07/18 00:58:08;;;;;;;;;;;;;;;;;;5072419;28;19921;-61
2021/07/18 01:00:34;;;;;;;;;;;;;;;;;;5074628;28;19908;-61
2021/07/18 01:03:01;;;;;;;;;;;;;;;;;;5071261;28;19965;-61
2021/07/18 01:05:26;;;;;;;;;;;;;;;;;;5071359;28;19912;-61
2021/07/18 01:07:52;;;;;;;;;;;;;;;;;;5071555;28;19920;-61
2021/07/18 01:10:18;;;;;;;;;;;;;;;;;;5071634;28;19963;-61
2021/07/18 01:12:44;;;;;;;;;;;;;;;;;;5073943;28;19920;-61
2021/07/18 01:15:10;;;;;;;;;;;;;;;;;;5071888;28;19974;-61
2021/07/18 01:17:36;;;;;;;;;;;;;;;;;;5071443;28;19915;-61
2021/07/18 01:20:04;;;;;;;;;;;;;;;;;;5057093;28;20260;-61
2021/07/18 01:22:30;;;;;;;;;;;;;;;;;;5071243;28;20280;-61
2021/07/18 01:24:56;;;;;;;;;;;;;;;;;;5073400;28;19916;-61
2021/07/18 01:27:22;;;;;;;;;;;;;;;;;;5072817;28;19912;-61
2021/07/18 01:29:48;;;;;;;;;;;;;;;;;;5070337;28;19908;-61
2021/07/18 01:32:14;;;;;;;;;;;;;;;;;;5071326;28;20382;-61
2021/07/18 01:34:39;;;;;;;;;;;;;;;;;;5071160;28;19924;-61
2021/07/18 01:37:05;;;;;;;;;;;;;;;;;;5071796;28;19912;-61
2021/07/18 01:39:31;;;;;;;;;;;;;;;;;;5073493;28;19947;-61
2021/07/18 01:41:57;;;;;;;;;;;;;;;;;;5070824;28;19908;-61
2021/07/18 01:44:23;;;;;;;;;;;;;;;;;;5070722;28;20298;-61
2021/07/18 01:46:49;;;;;;;;;;;;;;;;;;5070480;28;19952;-61
2021/07/18 01:49:15;;;;;;;;;;;;;;;;;;5070491;28;19917;-61
2021/07/18 01:51:41;;;;;;;;;;;;;;;;;;5074450;28;19916;-61
2021/07/18 01:54:06;;;;;;;;;;;;;;;;;;5070861;28;20019;-61
2021/07/18 01:56:32;;;;;;;;;;;;;;;;;;5070048;28;20327;-61
2021/07/18 01:58:58;;;;;;;;;;;;;;;;;;5069889;28;19913;-61
2021/07/18 02:01:24;;;;;;;;;;;;;;;;;;5070141;28;19909;-61
2021/07/18 02:03:50;;;;;;;;;;;;;;;;;;5072903;28;19939;-61
2021/07/18 02:06:16;;;;;;;;;;;;;;;;;;5071802;28;20318;-61
2021/07/18 02:08:42;;;;;;;;;;;;;;;;;;5070093;28;19909;-61
2021/07/18 02:11:07;;;;;;;;;;;;;;;;;;5069984;28;19920;-61
2021/07/18 02:13:33;;;;;;;;;;;;;;;;;;5070069;28;19920;-61
2021/07/18 02:15:59;;;;;;;;;;;;;;;;;;5072083;28;19917;-61
2021/07/18 02:18:25;;;;;;;;;;;;;;;;;;5071761;28;19912;-61
2021/07/18 02:20:51;;;;;;;;;;;;;;;;;;5069826;28;20249;-61
2021/07/18 02:23:17;;;;;;;;;;;;;;;;;;5070117;28;20028;-61
2021/07/18 02:25:43;;;;;;;;;;;;;;;;;;5070191;28;20058;-61
2021/07/18 02:28:09;;;;;;;;;;;;;;;;;;5070501;28;19966;-61
2021/07/18 02:30:35;;;;;;;;;;;;;;;;;;5059396;28;19915;-61
2021/07/18 02:33:01;;;;;;;;;;;;;;;;;;5069343;28;20001;-61
2021/07/18 02:35:27;;;;;;;;;;;;;;;;;;5070017;28;19920;-61
2021/07/18 02:37:53;;;;;;;;;;;;;;;;;;5069558;28;19930;-61
2021/07/18 02:40:19;;;;;;;;;;;;;;;;;;5069313;28;19913;-61
2021/07/18 02:42:44;;;;;;;;;;;;;;;;;;5072244;28;19916;-61
2021/07/18 02:45:10;;;;;;;;;;;;;;;;;;5070487;28;19909;-61
2021/07/18 02:47:36;;;;;;;;;;;;;;;;;;5069344;28;20365;-61
2021/07/18 02:50:02;;;;;;;;;;;;;;;;;;5069613;28;19935;-61
2021/07/18 02:52:28;;;;;;;;;;;;;;;;;;5069579;28;20265;-61
2021/07/18 02:54:55;;;;;;;;;;;;;;;;;;5071517;28;19964;-61
2021/07/18 02:57:21;;;;;;;;;;;;;;;;;;5070557;28;19910;-61
2021/07/18 02:59:47;;;;;;;;;;;;;;;;;;5069520;28;20291;-61
2021/07/18 03:02:13;;;;;;;;;;;;;;;;;;5069013;28;19917;-61
2021/07/18 03:04:39;;;;;;;;;;;;;;;;;;5069342;28;20387;-61
2021/07/18 03:07:05;;;;;;;;;;;;;;;;;;5069694;28;20387;-61
2021/07/18 03:09:31;;;;;;;;;;;;;;;;;;5071132;28;19939;-61
2021/07/18 03:11:56;;;;;;;;;;;;;;;;;;5068761;28;19920;-61
2021/07/18 03:14:22;;;;;;;;;;;;;;;;;;5069250;28;19921;-61
2021/07/18 03:16:48;;;;;;;;;;;;;;;;;;5068979;28;19913;-61
2021/07/18 03:19:14;;;;;;;;;;;;;;;;;;5068575;28;20314;-61
2021/07/18 03:21:40;;;;;;;;;;;;;;;;;;5072810;28;20276;-61
2021/07/18 03:24:06;;;;;;;;;;;;;;;;;;5068668;28;19919;-61
2021/07/18 03:26:32;;;;;;;;;;;;;;;;;;5068888;28;19955;-61
2021/07/18 03:28:58;;;;;;;;;;;;;;;;;;5068980;28;19927;-61
2021/07/18 03:31:24;;;;;;;;;;;;;;;;;;5069119;28;19920;-61
2021/07/18 03:33:49;;;;;;;;;;;;;;;;;;5070728;28;19998;-61
2021/07/18 03:36:15;;;;;;;;;;;;;;;;;;5056619;28;19908;-61
2021/07/18 03:38:41;;;;;;;;;;;;;;;;;;5069045;28;20261;-61
2021/07/18 03:41:07;;;;;;;;;;;;;;;;;;5068635;28;19912;-61
2021/07/18 03:43:33;;;;;;;;;;;;;;;;;;5069018;28;20375;-61
2021/07/18 03:45:59;;;;;;;;;;;;;;;;;;5070457;28;19909;-61
2021/07/18 03:48:25;;;;;;;;;;;;;;;;;;5070385;28;19909;-61
2021/07/18 03:50:51;;;;;;;;;;;;;;;;;;5068682;28;19920;-61
2021/07/18 03:53:16;;;;;;;;;;;;;;;;;;5068745;28;19913;-61
2021/07/18 03:55:42;;;;;;;;;;;;;;;;;;5068460;28;20007;-61
2021/07/18 03:58:08;;;;;;;;;;;;;;;;;;5068948;28;19920;-61
2021/07/18 04:00:34;;;;;;;;;;;;;;;;;;5071512;28;20025;-61
2021/07/18 04:03:00;;;;;;;;;;;;;;;;;;5068592;28;19916;-61
2021/07/18 04:05:26;;;;;;;;;;;;;;;;;;5068795;28;19913;-61
2021/07/18 04:07:52;;;;;;;;;;;;;;;;;;5068650;28;20307;-61
2021/07/18 04:10:18;;;;;;;;;;;;;;;;;;5069859;28;19913;-61
2021/07/18 04:12:43;;;;;;;;;;;;;;;;;;5071606;28;20477;-61
2021/07/18 04:15:09;;;;;;;;;;;;;;;;;;5068579;28;19994;-61
2021/07/18 04:17:35;;;;;;;;;;;;;;;;;;5068715;28;19909;-61
2021/07/18 04:20:01;;;;;;;;;;;;;;;;;;5070853;28;19913;-61
2021/07/18 04:22:27;;;;;;;;;;;;;;;;;;5071997;28;19909;-61
2021/07/18 04:24:53;;;;;;;;;;;;;;;;;;5074307;28;19912;-61
2021/07/18 04:27:19;;;;;;;;;;;;;;;;;;5073654;28;19914;-61
2021/07/18 04:29:45;;;;;;;;;;;;;;;;;;5072302;28;19909;-61
2021/07/18 04:32:11;;;;;;;;;;;;;;;;;;5071429;28;19919;-61
2021/07/18 04:34:40;;;;;;;;;;;;;;;;;;5072135;28;20039;-61
2021/07/18 04:37:06;;;;;;;;;;;;;;;;;;5055242;28;19971;-61
2021/07/18 04:39:32;;;;;;;;;;;;;;;;;;5074710;28;19912;-61
2021/07/18 04:42:00;;;;;;;;;;;;;;;;;;5071612;28;19998;-61
2021/07/18 04:44:26;;;;;;;;;;;;;;;;;;5072222;28;20024;-69
2021/07/18 04:46:54;;;;;;;;;;;;;;;;;;5071643;28;19943;-69
2021/07/18 04:49:20;;;;;;;;;;;;;;;;;;5072109;28;20013;-69
2021/07/18 04:51:46;;;;;;;;;;;;;;;;;;5074148;28;19909;-69
2021/07/18 04:54:12;;;;;;;;;;;;;;;;;;5058621;28;19924;-69
2021/07/18 04:56:38;;;;;;;;;;;;;;;;;;5071924;28;19955;-69
2021/07/18 04:59:04;;;;;;;;;;;;;;;;;;5071754;28;19912;-69
2021/07/18 05:01:29;;;;;;;;;;;;;;;;;;5071414;28;19935;-69
2021/07/18 05:03:55;;;;;;;;;;;;;;;;;;5073542;28;19978;-69
2021/07/18 05:06:21;;;;;;;;;;;;;;;;;;5072835;28;19912;-69
2021/07/18 05:08:47;;;;;;;;;;;;;;;;;;5071233;28;19909;-70
2021/07/18 05:11:13;;;;;;;;;;;;;;;;;;5071506;28;19964;-70
2021/07/18 05:13:39;;;;;;;;;;;;;;;;;;5071194;28;19924;-70
2021/07/18 05:16:05;;;;;;;;;;;;;;;;;;5071923;28;20078;-70
2021/07/18 05:18:31;;;;;;;;;;;;;;;;;;5074162;28;19932;-70
2021/07/18 05:20:57;;;;;;;;;;;;;;;;;;5071095;28;19913;-71
2021/07/18 05:23:23;;;;;;;;;;;;;;;;;;5071176;28;19916;-70
2021/07/18 05:25:49;;;;;;;;;;;;;;;;;;5055129;28;19919;-70
2021/07/18 05:28:15;;;;;;;;;;;;;;;;;;5070929;28;19997;-70
2021/07/18 05:30:41;;;;;;;;;;;;;;;;;;5073812;28;19908;-70
2021/07/18 05:33:06;;;;;;;;;;;;;;;;;;5071137;28;19974;-70
2021/07/18 05:35:32;;;;;;;;;;;;;;;;;;5057426;28;19921;-70
2021/07/18 05:37:58;;;;;;;;;;;;;;;;;;5070761;28;19919;-70
2021/07/18 05:40:24;;;;;;;;;;;;;;;;;;5070521;28;20291;-71
2021/07/18 05:42:50;;;;;;;;;;;;;;;;;;5073358;28;19908;-70
2021/07/18 05:45:16;;;;;;;;;;;;;;;;;;5072172;28;19908;-70
2021/07/18 05:47:42;;;;;;;;;;;;;;;;;;5070968;28;19912;-71
2021/07/18 05:50:08;;;;;;;;;;;;;;;;;;5069933;28;20416;-70
2021/07/18 05:52:34;;;;;;;;;;;;;;;;;;5070703;28;20363;-70
2021/07/18 05:55:00;;;;;;;;;;;;;;;;;;5072068;28;19931;-70
2021/07/18 05:57:26;;;;;;;;;;;;;;;;;;5072154;28;20082;-70
2021/07/18 05:59:52;;;;;;;;;;;;;;;;;;5070410;28;19912;-70
2021/07/18 06:02:17;;;;;;;;;;;;;;;;;;5070227;28;19912;-71
2021/07/18 06:04:43;;;;;;;;;;;;;;;;;;5070291;28;20372;-70
2021/07/18 06:07:09;;;;;;;;;;;;;;;;;;5070947;28;19974;-70
2021/07/18 06:09:35;;;;;;;;;;;;;;;;;;5072873;28;19909;-71
2021/07/18 06:12:01;;;;;;;;;;;;;;;;;;5069894;28;19927;-70
2021/07/18 06:14:27;;;;;;;;;;;;;;;;;;5070452;28;19939;-71
2021/07/18 06:16:53;;;;;;;;;;;;;;;;;;5070313;28;19979;-70
2021/07/18 06:19:18;;;;;;;;;;;;;;;;;;5069821;28;19919;-70
2021/07/18 06:21:44;;;;;;;;;;;;;;;;;;5058552;28;19977;-70
2021/07/18 06:24:10;;;;;;;;;;;;;;;;;;5070892;28;19916;-71
2021/07/18 06:26:36;;;;;;;;;;;;;;;;;;5070034;28;19960;-70
2021/07/18 06:29:02;;;;;;;;;;;;;;;;;;5070246;28;19916;-71
2021/07/18 06:31:28;;;;;;;;;;;;;;;;;;5070229;28;19995;-70
2021/07/18 06:33:54;;;;;;;;;;;;;;;;;;5071370;28;19951;-71
2021/07/18 06:36:20;;;;;;;;;;;;;;;;;;5071298;28;19974;-70
2021/07/18 06:38:45;;;;;;;;;;;;;;;;;;5070261;28;19919;-70
2021/07/18 06:41:11;;;;;;;;;;;;;;;;;;5070012;28;20299;-71
2021/07/18 06:43:37;;;;;;;;;;;;;;;;;;5071026;28;19947;-70
2021/07/18 06:46:03;;;;;;;;;;;;;;;;;;5071786;28;20383;-71
2021/07/18 06:48:29;;;;;;;;;;;;;;;;;;5071829;28;19912;-70
2021/07/18 06:50:55;;;;;;;;;;;;;;;;;;5069663;28;20390;-70
2021/07/18 06:53:21;;;;;;;;;;;;;;;;;;5070002;28;19912;-71
2021/07/18 06:55:47;;;;;;;;;;;;;;;;;;5069139;28;19924;-68
2021/07/18 06:58:13;;;;;;;;;;;;;;;;;;5069703;28;20515;-71
2021/07/18 07:00:38;;;;;;;;;;;;;;;;;;5073587;28;19966;-70
2021/07/18 07:03:04;;;;;;;;;;;;;;;;;;5069254;28;19926;-70
2021/07/18 07:05:30;;;;;;;;;;;;;;;;;;5069652;28;19912;-71
2021/07/18 07:07:56;;;;;;;;;;;;;;;;;;5069400;28;19923;-71
2021/07/18 07:10:22;;;;;;;;;;;;;;;;;;5068765;28;19963;-70
2021/07/18 07:12:49;;;;;;;;;;;;;;;;;;5071672;28;19989;-70
2021/07/18 07:15:14;;;;;;;;;;;;;;;;;;5071703;28;19924;-70
2021/07/18 07:17:40;;;;;;;;;;;;;;;;;;5068949;28;20050;-71
2021/07/18 07:20:06;;;;;;;;;;;;;;;;;;5069263;28;19913;-71
2021/07/18 07:22:35;;;;;;;;;;;;;;;;;;5069997;28;19916;-71
2021/07/18 07:25:01;;;;;;;;;;;;;;;;;;5070067;28;19920;-71
2021/07/18 07:27:27;;;;;;;;;;;;;;;;;;5071235;28;19913;-71
2021/07/18 07:29:53;;;;;;;;;;;;;;;;;;5068835;28;19936;-70
2021/07/18 07:32:19;;;;;;;;;;;;;;;;;;5068413;28;19966;-71
2021/07/18 07:34:45;;;;;;;;;;;;;;;;;;5069124;28;19912;-70
2021/07/18 07:37:11;;;;;;;;;;;;;;;;;;5053400;28;19920;-71
2021/07/18 07:39:37;;;;;;;;;;;;;;;;;;5072003;28;19908;-71
2021/07/18 07:42:03;;;;;;;;;;;;;;;;;;5068817;28;19912;-71
2021/07/18 07:44:29;;;;;;;;;;;;;;;;;;5055037;28;19966;-71
2021/07/18 07:46:55;;;;;;;;;;;;;;;;;;5068229;28;20380;-70
2021/07/18 07:49:21;;;;;;;;;;;;;;;;;;5068807;28;19916;-70
2021/07/18 07:51:47;;;;;;;;;;;;;;;;;;5071295;28;19915;-71
2021/07/18 07:54:13;;;;;;;;;;;;;;;;;;5070478;28;20298;-70
2021/07/18 07:56:39;;;;;;;;;;;;;;;;;;5072665;28;19912;-71
2021/07/18 07:59:05;;;;;;;;;;;;;;;;;;5072928;28;20700;-70
2021/07/18 08:01:31;;;;;;;;;;;;;;;;;;5072626;28;19955;-71
2021/07/18 08:03:57;;;;;;;;;;;;;;;;;;5075204;28;20046;-70
2021/07/18 08:06:23;;;;;;;;;;;;;;;;;;5074192;28;20029;-70
2021/07/18 08:08:49;;;;;;;;;;;;;;;;;;5072043;28;19909;-70
2021/07/18 08:11:15;;;;;;;;;;;;;;;;;;5072408;28;19912;-69
2021/07/18 08:13:41;;;;;;;;;;;;;;;;;;5072848;28;19916;-70
2021/07/18 08:16:06;;;;;;;;;;;;;;;;;;5072792;28;19928;-70
2021/07/18 08:18:32;;;;;;;;;;;;;;;;;;5075419;28;19962;-71
2021/07/18 08:20:58;;;;;;;;;;;;;;;;;;5072036;28;19935;-70
2021/07/18 08:23:24;;;;;;;;;;;;;;;;;;5072472;28;19919;-70
2021/07/18 08:25:50;;;;;;;;;;;;;;;;;;5072368;28;19966;-70
2021/07/18 08:28:16;;;;;;;;;;;;;;;;;;5071891;28;19912;-70
2021/07/18 08:30:42;;;;;;;;;;;;;;;;;;5075397;28;19962;-70
2021/07/18 08:33:08;;;;;;;;;;;;;;;;;;5072423;28;19923;-70
2021/07/18 08:35:34;;;;;;;;;;;;;;;;;;5072106;28;19924;-71
2021/07/18 08:38:00;;;;;;;;;;;;;;;;;;5071725;28;20292;-71
2021/07/18 08:40:25;;;;;;;;;;;;;;;;;;5072118;28;19912;-70
2021/07/18 08:42:51;;;;;;;;;;;;;;;;;;5074241;28;20295;-70
2021/07/18 08:45:17;;;;;;;;;;;;;;;;;;5072620;28;20372;-70
2021/07/18 08:47:43;;;;;;;;;;;;;;;;;;5071450;28;19962;-71
2021/07/18 08:50:09;;;;;;;;;;;;;;;;;;5071945;28;19913;-71
2021/07/18 08:52:35;;;;;;;;;;;;;;;;;;5071922;28;19913;-70
2021/07/18 08:55:01;;;;;;;;;;;;;;;;;;5073471;28;19923;-71
2021/07/18 08:57:27;;;;;;;;;;;;;;;;;;5073484;28;19908;-70
2021/07/18 08:59:53;;;;;;;;;;;;;;;;;;5071243;28;19982;-71
2021/07/18 09:02:19;;;;;;;;;;;;;;;;;;5071250;28;19913;-71
2021/07/18 09:04:45;;;;;;;;;;;;;;;;;;5071664;28;20287;-69
2021/07/18 09:07:11;;;;;;;;;;;;;;;;;;5056033;28;19913;-71
2021/07/18 09:09:36;;;;;;;;;;;;;;;;;;5074877;28;19908;-70
2021/07/18 09:12:02;;;;;;;;;;;;;;;;;;5070971;28;19966;-71
2021/07/18 09:14:28;;;;;;;;;;;;;;;;;;5070956;28;19923;-69
2021/07/18 09:16:54;;;;;;;;;;;;;;;;;;5071491;28;19913;-70
2021/07/18 09:19:20;;;;;;;;;;;;;;;;;;5071115;28;19913;-70
2021/07/18 09:21:46;;;;;;;;;;;;;;;;;;5074405;28;20359;-71
2021/07/18 09:24:12;;;;;;;;;;;;;;;;;;5071866;28;19913;-70
2021/07/18 09:26:38;;;;;;;;;;;;;;;;;;5071265;28;19912;-70
2021/07/18 09:29:03;;;;;;;;;;;;;;;;;;5070998;28;20413;-70
2021/07/18 09:31:29;;;;;;;;;;;;;;;;;;5070734;28;19924;-69
2021/07/18 09:33:55;;;;;;;;;;;;;;;;;;5073581;28;19913;-69
2021/07/18 09:36:21;;;;;;;;;;;;;;;;;;5071782;28;19966;-70
2021/07/18 09:38:47;;;;;;;;;;;;;;;;;;5071092;28;20450;-70
2021/07/18 09:41:13;;;;;;;;;;;;;;;;;;5071018;28;19912;-70
2021/07/18 09:43:39;;;;;;;;;;;;;;;;;;5070873;28;20011;-69
2021/07/18 09:46:08;;;;;;;;;;;;;;;;;;5071671;28;19967;-70
2021/07/18 09:48:35;;;;;;;;;;;;;;;;;;5073397;28;20003;-69
2021/07/18 09:51:01;;;;;;;;;;;;;;;;;;5070505;28;19913;-69
2021/07/18 09:53:26;;;;;;;;;;;;;;;;;;5070871;28;19965;-69
2021/07/18 09:55:52;;;;;;;;;;;;;;;;;;5070347;28;20318;-69
2021/07/18 09:58:18;;;;;;;;;;;;;;;;;;5070461;28;20478;-69
2021/07/18 10:00:44;;;;;;;;;;;;;;;;;;5073706;28;19915;-69
2021/07/18 10:03:10;;;;;;;;;;;;;;;;;;5070868;28;19944;-69
2021/07/18 10:05:36;;;;;;;;;;;;;;;;;;5070316;28;19912;-69
2021/07/18 10:08:02;;;;;;;;;;;;;;;;;;5070414;28;19986;-70
2021/07/18 10:10:27;;;;;;;;;;;;;;;;;;5070139;28;20360;-68
2021/07/18 10:12:53;;;;;;;;;;;;;;;;;;5072225;28;19924;-69
2021/07/18 10:15:19;;;;;;;;;;;;;;;;;;5071191;28;20367;-69
2021/07/18 10:17:45;;;;;;;;;;;;;;;;;;5069742;28;19908;-70
2021/07/18 10:20:11;;;;;;;;;;;;;;;;;;5070082;28;19912;-70
2021/07/18 10:22:37;;;;;;;;;;;;;;;;;;5069676;28;19919;-68
2021/07/18 10:25:03;;;;;;;;;;;;;;;;;;5071543;28;19920;-70
2021/07/18 10:27:28;;;;;;;;;;;;;;;;;;5072162;28;20003;-70
2021/07/18 10:29:54;;;;;;;;;;;;;;;;;;5069389;28;19962;-70
2021/07/18 10:32:20;;;;;;;;;;;;;;;;;;5069978;28;20399;-70
2021/07/18 10:34:46;;;;;;;;;;;;;;;;;;5069466;28;19920;-70
2021/07/18 10:37:12;;;;;;;;;;;;;;;;;;5070159;28;19962;-69
2021/07/18 10:39:38;;;;;;;;;;;;;;;;;;5073175;28;19909;-69
2021/07/18 10:42:04;;;;;;;;;;;;;;;;;;5056186;28;20019;-69
2021/07/18 10:44:30;;;;;;;;;;;;;;;;;;5069688;28;19924;-69
2021/07/18 10:46:56;;;;;;;;;;;;;;;;;;5069308;28;20318;-69
2021/07/18 10:49:22;;;;;;;;;;;;;;;;;;5069621;28;19983;-70
2021/07/18 10:51:48;;;;;;;;;;;;;;;;;;5071734;28;19912;-69
2021/07/18 10:54:13;;;;;;;;;;;;;;;;;;5070472;28;20372;-69
2021/07/18 10:56:39;;;;;;;;;;;;;;;;;;5069296;28;19913;-69
2021/07/18 10:59:05;;;;;;;;;;;;;;;;;;5069065;28;19986;-69
2021/07/18 11:01:31;;;;;;;;;;;;;;;;;;5069469;28;19913;-69
2021/07/18 11:03:57;;;;;;;;;;;;;;;;;;5071023;28;19912;-69
2021/07/18 11:06:25;;;;;;;;;;;;;;;;;;5070855;28;20380;-70
2021/07/18 11:08:51;;;;;;;;;;;;;;;;;;5068544;28;19909;-69
2021/07/18 11:11:17;;;;;;;;;;;;;;;;;;5068868;28;19913;-69
2021/07/18 11:13:42;;;;;;;;;;;;;;;;;;5051870;28;19916;-70
2021/07/18 11:16:08;;;;;;;;;;;;;;;;;;5069911;28;20376;-69
2021/07/18 11:18:35;;;;;;;;;;;;;;;;;;5072226;28;19915;-70
2021/07/18 11:21:01;;;;;;;;;;;;;;;;;;5069105;28;19920;-69
2021/07/18 11:23:27;;;;;;;;;;;;;;;;;;5068557;28;19913;-69
2021/07/18 11:25:54;;;;;;;;;;;;;;;;;;5068770;28;19917;-70
2021/07/18 11:28:19;;;;;;;;;;;;;;;;;;5068598;28;19912;-69
2021/07/18 11:30:45;;;;;;;;;;;;;;;;;;5071881;28;19909;-70
2021/07/18 11:33:11;;;;;;;;;;;;;;;;;;5069632;28;19908;-69
2021/07/18 11:35:37;;;;;;;;;;;;;;;;;;5068584;28;19920;-69
2021/07/18 11:38:03;;;;;;;;;;;;;;;;;;5068370;28;19919;-70
2021/07/18 11:40:29;;;;;;;;;;;;;;;;;;5068937;28;19920;-69
2021/07/18 11:42:55;;;;;;;;;;;;;;;;;;5071087;28;19908;-69
2021/07/18 11:45:21;;;;;;;;;;;;;;;;;;5070194;28;19913;-70
2021/07/18 11:47:47;;;;;;;;;;;;;;;;;;5068407;28;20402;-70
2021/07/18 11:50:16;;;;;;;;;;;;;;;;;;5068318;28;19913;-70
2021/07/18 11:52:42;;;;;;;;;;;;;;;;;;5068762;28;20383;-69
2021/07/18 11:55:08;;;;;;;;;;;;;;;;;;5069516;28;19967;-70
2021/07/18 11:57:34;;;;;;;;;;;;;;;;;;5071292;28;20303;-70
2021/07/18 12:00:00;;;;;;;;;;;;;;;;;;5068441;28;20376;-69
2021/07/18 12:02:26;;;;;;;;;;;;;;;;;;5068721;28;20000;-69
2021/07/18 12:04:52;;;;;;;;;;;;;;;;;;5068701;28;19913;-70
2021/07/18 12:07:18;;;;;;;;;;;;;;;;;;5068553;28;19921;-69
2021/07/18 12:09:44;;;;;;;;;;;;;;;;;;5071428;28;20351;-69
2021/07/18 12:12:10;;;;;;;;;;;;;;;;;;5068852;28;20291;-70
2021/07/18 12:14:36;;;;;;;;;;;;;;;;;;5068186;28;20003;-69
2021/07/18 12:17:02;;;;;;;;;;;;;;;;;;5068513;28;19990;-69
2021/07/18 12:19:27;;;;;;;;;;;;;;;;;;5068545;28;19912;-69
2021/07/18 12:21:53;;;;;;;;;;;;;;;;;;5070477;28;19957;-69
2021/07/18 12:24:22;;;;;;;;;;;;;;;;;;5069324;28;20284;-69
2021/07/18 12:26:48;;;;;;;;;;;;;;;;;;5068159;28;20054;-70
2021/07/18 12:29:14;;;;;;;;;;;;;;;;;;5068266;28;20014;-70
2021/07/18 12:31:40;;;;;;;;;;;;;;;;;;5068022;28;20329;-70
2021/07/18 12:34:06;;;;;;;;;;;;;;;;;;5069521;28;19920;-69
2021/07/18 12:36:32;;;;;;;;;;;;;;;;;;5070760;28;19923;-69
2021/07/18 12:38:58;;;;;;;;;;;;;;;;;;5068055;28;19949;-70
2021/07/18 12:41:23;;;;;;;;;;;;;;;;;;5070734;28;19923;-70
2021/07/18 12:43:49;;;;;;;;;;;;;;;;;;5072093;28;19912;-69
2021/07/18 12:46:15;;;;;;;;;;;;;;;;;;5072105;28;20363;-62
2021/07/18 12:48:41;;;;;;;;;;;;;;;;;;5075774;28;19915;-62
2021/07/18 12:51:07;;;;;;;;;;;;;;;;;;5071737;28;19955;-62
2021/07/18 12:53:33;;;;;;;;;;;;;;;;;;5071148;28;19956;-62
2021/07/18 12:56:00;;;;;;;;;;;;;;;;;;5071725;28;19920;-62
2021/07/18 12:58:27;;;;;;;;;;;;;;;;;;5071720;28;19916;-62
2021/07/18 13:00:53;;;;;;;;;;;;;;;;;;5073922;28;19946;-62
2021/07/18 13:03:19;;;;;;;;;;;;;;;;;;5072451;28;19996;-62
2021/07/18 13:05:45;;;;;;;;;;;;;;;;;;5070914;28;19912;-62
2021/07/18 13:08:11;;;;;;;;;;;;;;;;;;5058282;28;19960;-61
2021/07/18 13:10:37;;;;;;;;;;;;;;;;;;5071463;28;20299;-61
2021/07/18 13:13:03;;;;;;;;;;;;;;;;;;5072459;28;20337;-61
2021/07/18 13:15:30;;;;;;;;;;;;;;;;;;5073698;28;19917;-61
2021/07/18 13:17:55;;;;;;;;;;;;;;;;;;5070958;28;19957;-61
2021/07/18 13:20:21;;;;;;;;;;;;;;;;;;5057720;28;19999;-61
2021/07/18 13:22:47;;;;;;;;;;;;;;;;;;5071317;28;19912;-62
2021/07/18 13:25:13;;;;;;;;;;;;;;;;;;5070754;28;20009;-61
2021/07/18 13:27:39;;;;;;;;;;;;;;;;;;5074890;28;19909;-61
2021/07/18 13:30:05;;;;;;;;;;;;;;;;;;5071207;28;19913;-61
2021/07/18 13:32:31;;;;;;;;;;;;;;;;;;5070581;28;20007;-62
2021/07/18 13:34:57;;;;;;;;;;;;;;;;;;5070855;28;20387;-61
2021/07/18 13:37:22;;;;;;;;;;;;;;;;;;5070737;28;19913;-61
2021/07/18 13:39:48;;;;;;;;;;;;;;;;;;5073692;28;20326;-61
2021/07/18 13:42:14;;;;;;;;;;;;;;;;;;5072288;28;19951;-62
2021/07/18 13:44:40;;;;;;;;;;;;;;;;;;5070386;28;20399;-61
2021/07/18 13:47:06;;;;;;;;;;;;;;;;;;5056546;28;19970;-62
2021/07/18 13:49:32;;;;;;;;;;;;;;;;;;5070684;28;20280;-62
2021/07/18 13:51:59;;;;;;;;;;;;;;;;;;5072095;28;19948;-62
2021/07/18 13:54:25;;;;;;;;;;;;;;;;;;5072142;28;19912;-62
2021/07/18 13:56:51;;;;;;;;;;;;;;;;;;5070219;28;20392;-62
2021/07/18 13:59:17;;;;;;;;;;;;;;;;;;5070068;28;19919;-62
2021/07/18 14:01:43;;;;;;;;;;;;;;;;;;5070454;28;19995;-62
2021/07/18 14:04:09;;;;;;;;;;;;;;;;;;5071018;28;19920;-64
2021/07/18 14:06:35;;;;;;;;;;;;;;;;;;5072770;28;19908;-62
2021/07/18 14:09:01;;;;;;;;;;;;;;;;;;5070385;28;19918;-62
2021/07/18 14:11:27;;;;;;;;;;;;;;;;;;5070197;28;20423;-62
2021/07/18 14:13:52;;;;;;;;;;;;;;;;;;5070253;28;19919;-62
2021/07/18 14:16:18;;;;;;;;;;;;;;;;;;5069592;28;19954;-62
2021/07/18 14:18:44;;;;;;;;;;;;;;;;;;5073238;28;19913;-62
2021/07/18 14:21:10;;;;;;;;;;;;;;;;;;5070231;28;19912;-62
2021/07/18 14:23:36;;;;;;;;;;;;;;;;;;5069885;28;19919;-62
2021/07/18 14:26:02;;;;;;;;;;;;;;;;;;5069865;28;19992;-62
2021/07/18 14:28:28;;;;;;;;;;;;;;;;;;5070297;28;20391;-62
2021/07/18 14:30:54;;;;;;;;;;;;;;;;;;5071831;28;19966;-62
2021/07/18 14:33:20;;;;;;;;;;;;;;;;;;5073283;28;20003;-62
2021/07/18 14:35:45;;;;;;;;;;;;;;;;;;5069733;28;19974;-62
2021/07/18 14:38:11;;;;;;;;;;;;;;;;;;5069499;28;19913;-62
2021/07/18 14:40:37;;;;;;;;;;;;;;;;;;5069426;28;20307;-62
2021/07/18 14:43:03;;;;;;;;;;;;;;;;;;5071203;28;20011;-62
2021/07/18 14:45:29;;;;;;;;;;;;;;;;;;5071870;28;20054;-63
2021/07/18 14:47:55;;;;;;;;;;;;;;;;;;5055906;28;19959;-62
2021/07/18 14:50:21;;;;;;;;;;;;;;;;;;5069247;28;19934;-62
2021/07/18 14:52:47;;;;;;;;;;;;;;;;;;5052670;28;19913;-62
2021/07/18 14:55:13;;;;;;;;;;;;;;;;;;5069600;28;20028;-62
2021/07/18 14:57:39;;;;;;;;;;;;;;;;;;5068675;28;19909;-62
2021/07/18 15:00:05;;;;;;;;;;;;;;;;;;5069280;28;19912;-62
2021/07/18 15:02:31;;;;;;;;;;;;;;;;;;5068570;28;19918;-62
2021/07/18 15:04:56;;;;;;;;;;;;;;;;;;5069344;28;20379;-62
2021/07/18 15:07:22;;;;;;;;;;;;;;;;;;5069034;28;19956;-62
2021/07/18 15:09:48;;;;;;;;;;;;;;;;;;5072103;28;20349;-63
2021/07/18 15:12:14;;;;;;;;;;;;;;;;;;5069762;28;19939;-63
2021/07/18 15:14:40;;;;;;;;;;;;;;;;;;5069041;28;19960;-62
2021/07/18 15:17:06;;;;;;;;;;;;;;;;;;5068853;28;19924;-62
2021/07/18 15:19:32;;;;;;;;;;;;;;;;;;5069208;28;19913;-62
2021/07/18 15:21:57;;;;;;;;;;;;;;;;;;5070902;28;19978;-62
2021/07/18 15:24:23;;;;;;;;;;;;;;;;;;5070624;28;19999;-62
2021/07/18 15:26:49;;;;;;;;;;;;;;;;;;5068757;28;19912;-61
2021/07/18 15:29:15;;;;;;;;;;;;;;;;;;5068972;28;19913;-62
2021/07/18 15:31:41;;;;;;;;;;;;;;;;;;5068545;28;19959;-62
2021/07/18 15:34:07;;;;;;;;;;;;;;;;;;5069937;28;19913;-61
2021/07/18 15:36:33;;;;;;;;;;;;;;;;;;5071545;28;20364;-62
2021/07/18 15:38:59;;;;;;;;;;;;;;;;;;5068379;28;19967;-61
2021/07/18 15:41:28;;;;;;;;;;;;;;;;;;5068375;28;19923;-62
2021/07/18 15:43:54;;;;;;;;;;;;;;;;;;5068972;28;19916;-62
2021/07/18 15:46:20;;;;;;;;;;;;;;;;;;5068645;28;19913;-62
2021/07/18 15:48:46;;;;;;;;;;;;;;;;;;5071755;28;19915;-61
2021/07/18 15:51:12;;;;;;;;;;;;;;;;;;5068986;28;19993;-61
2021/07/18 15:53:38;;;;;;;;;;;;;;;;;;5068687;28;19912;-61
2021/07/18 15:56:04;;;;;;;;;;;;;;;;;;5068315;28;20414;-62
2021/07/18 15:58:30;;;;;;;;;;;;;;;;;;5068764;28;19913;-62
2021/07/18 16:00:55;;;;;;;;;;;;;;;;;;5071145;28;19978;-61
2021/07/18 16:03:21;;;;;;;;;;;;;;;;;;5069306;28;19908;-61
2021/07/18 16:05:47;;;;;;;;;;;;;;;;;;5068594;28;19916;-61
2021/07/18 16:08:13;;;;;;;;;;;;;;;;;;5068691;28;19919;-61
2021/07/18 16:10:39;;;;;;;;;;;;;;;;;;5067982;28;20470;-61
2021/07/18 16:13:05;;;;;;;;;;;;;;;;;;5069627;28;19928;-61
2021/07/18 16:15:31;;;;;;;;;;;;;;;;;;5072386;28;19916;-61
2021/07/18 16:17:57;;;;;;;;;;;;;;;;;;5072282;28;20265;-62
2021/07/18 16:20:23;;;;;;;;;;;;;;;;;;5071746;28;19966;-62
2021/07/18 16:22:49;;;;;;;;;;;;;;;;;;5072059;28;19917;-61
2021/07/18 16:25:15;;;;;;;;;;;;;;;;;;5072459;28;19969;-61
2021/07/18 16:27:41;;;;;;;;;;;;;;;;;;5076107;28;19916;-61
2021/07/18 16:30:06;;;;;;;;;;;;;;;;;;5071608;28;19920;-62
2021/07/18 16:32:32;;;;;;;;;;;;;;;;;;5072019;28;20287;-61
2021/07/18 16:34:58;;;;;;;;;;;;;;;;;;5072109;28;19956;-61
2021/07/18 16:37:24;;;;;;;;;;;;;;;;;;5072240;28;20014;-61